Time;durP1;ratioP1;P1;durP2;ratioP2;P2;SDS_P1;SDS_P2;PMS_P1;PMS_P2;Temp;Humidity;BMP_temperature;BMP_pressure;BME280_temperature;BME280_humidity;BME280_pressure;Samples;Min_cycle;Max_cycle;Signal;HPM_P1;HPM_P2
2022/12/10 00:01:22;;;;;;;4.88;4.03;;;1.50;99.90;;;;;;5047881;28;20200;-71
2022/12/10 00:03:49;;;;;;;6.03;5.10;;;1.60;99.90;;;;;;5048577;28;20202;-72
2022/12/10 00:06:20;;;;;;;5.18;3.65;;;1.50;99.90;;;;;;5047687;28;20232;-72
2022/12/10 00:08:47;;;;;;;5.88;2.75;;;1.50;99.90;;;;;;5047786;28;20506;-71
2022/12/10 00:11:16;;;;;;;3.35;2.45;;;1.50;99.90;;;;;;5048518;28;20206;-71
2022/12/10 00:13:44;;;;;;;5.00;4.00;;;1.50;99.90;;;;;;5048533;28;20202;-72
2022/12/10 00:16:12;;;;;;;6.13;3.45;;;1.60;99.90;;;;;;5047253;28;20291;-72
2022/12/10 00:18:39;;;;;;;4.25;3.20;;;1.50;99.90;;;;;;5048207;28;20275;-72
2022/12/10 00:21:09;;;;;;;4.45;4.05;;;1.60;99.90;;;;;;5048834;28;20271;-74
2022/12/10 00:23:38;;;;;;;2.22;2.13;;;1.60;99.90;;;;;;5048673;28;20291;-72
2022/12/10 00:26:05;;;;;;;10.27;4.32;;;1.60;99.90;;;;;;5048052;28;20224;-72
2022/12/10 00:28:32;;;;;;;2.67;2.42;;;1.50;99.90;;;;;;5048187;28;20188;-72
2022/12/10 00:31:04;;;;;;;4.57;2.05;;;1.50;99.90;;;;;;5048313;28;20204;-72
2022/12/10 00:33:30;;;;;;;6.97;3.85;;;1.50;99.90;;;;;;5048431;28;20196;-72
2022/12/10 00:36:01;;;;;;;3.55;3.28;;;1.60;99.90;;;;;;5046941;28;20211;-72
2022/12/10 00:38:29;;;;;;;8.43;3.08;;;1.60;99.90;;;;;;5047979;28;20279;-72
2022/12/10 00:40:57;;;;;;;6.75;6.18;;;1.50;99.90;;;;;;5048284;28;20196;-73
2022/12/10 00:43:23;;;;;;;4.45;3.70;;;1.60;99.90;;;;;;5048248;28;20215;-72
2022/12/10 00:45:50;;;;;;;4.88;4.20;;;1.50;99.90;;;;;;5047518;28;20228;-75
2022/12/10 00:48:17;;;;;;;6.30;4.40;;;1.50;99.90;;;;;;5047804;28;20202;-72
2022/12/10 00:50:44;;;;;;;5.05;4.18;;;1.50;99.90;;;;;;5048106;28;20635;-72
2022/12/10 00:53:10;;;;;;;3.17;2.88;;;1.60;99.90;;;;;;5048366;28;20255;-72
2022/12/10 00:55:37;;;;;;;2.67;2.38;;;1.60;99.90;;;;;;5047950;28;20196;-73
2022/12/10 00:58:05;;;;;;;4.07;3.67;;;1.60;99.90;;;;;;5048430;28;20227;-71
2022/12/10 01:00:32;;;;;;;3.83;3.35;;;1.60;99.90;;;;;;5048518;28;20196;-72
2022/12/10 01:02:59;;;;;;;2.75;2.55;;;1.60;99.90;;;;;;5047110;28;20202;-72
2022/12/10 01:05:27;;;;;;;10.50;5.03;;;1.60;99.90;;;;;;5047953;28;20425;-72
2022/12/10 01:07:55;;;;;;;2.40;2.20;;;1.60;99.90;;;;;;5047471;28;20290;-72
2022/12/10 01:10:23;;;;;;;3.90;3.08;;;1.60;99.90;;;;;;5047535;28;20203;-72
2022/12/10 01:12:50;;;;;;;5.68;3.67;;;1.60;99.90;;;;;;5047427;28;20267;-72
2022/12/10 01:15:18;;;;;;;2.63;2.10;;;1.60;99.90;;;;;;5047709;28;20474;-72
2022/12/10 01:17:45;;;;;;;6.13;4.55;;;1.60;99.90;;;;;;5046423;28;20199;-72
2022/12/10 01:20:12;;;;;;;1.95;1.85;;;1.60;99.90;;;;;;5047950;28;20625;-72
2022/12/10 01:22:39;;;;;;;2.35;2.03;;;1.60;99.90;;;;;;5047743;28;20207;-72
2022/12/10 01:25:06;;;;;;;7.55;5.22;;;1.60;99.90;;;;;;5047444;28;20251;-72
2022/12/10 01:27:33;;;;;;;3.50;2.50;;;1.50;99.90;;;;;;5046974;28;20207;-73
2022/12/10 01:30:00;;;;;;;3.80;3.50;;;1.50;99.90;;;;;;5047271;28;20188;-72
2022/12/10 01:32:28;;;;;;;3.00;2.80;;;1.50;99.90;;;;;;5047556;28;20200;-73
2022/12/10 01:34:55;;;;;;;3.70;3.50;;;1.50;99.90;;;;;;5047593;28;20298;-72
2022/12/10 01:37:22;;;;;;;5.18;3.33;;;1.50;99.90;;;;;;5046536;28;20296;-72
2022/12/10 01:39:49;;;;;;;27.30;5.00;;;1.50;99.90;;;;;;5047464;28;20198;-72
2022/12/10 01:42:15;;;;;;;3.90;3.50;;;1.50;99.90;;;;;;5047475;28;20274;-72
2022/12/10 01:45:07;;;;;;;3.50;2.30;;;1.80;99.90;;;;;;5046598;28;20219;-72
2022/12/10 01:47:35;;;;;;;2.70;2.38;;;1.50;99.90;;;;;;5032310;28;20712;-72
2022/12/10 01:50:02;;;;;;;7.50;3.88;;;1.50;99.90;;;;;;5047455;28;20199;-72
2022/12/10 01:52:29;;;;;;;5.88;3.28;;;1.50;99.90;;;;;;5047349;28;20609;-72
2022/12/10 01:54:56;;;;;;;4.03;3.65;;;1.50;99.90;;;;;;5047191;28;20220;-72
2022/12/10 01:57:26;;;;;;;6.80;4.43;;;1.40;99.90;;;;;;5030309;28;20196;-72
2022/12/10 01:59:56;;;;;;;3.28;3.00;;;1.50;99.90;;;;;;5047526;28;20288;-72
2022/12/10 02:02:32;;;;;;;7.72;2.72;;;1.40;99.90;;;;;;5046685;28;20206;-71
2022/12/10 02:05:10;;;;;;;3.75;2.38;;;1.40;99.90;;;;;;5045945;28;20226;-72
2022/12/10 02:07:51;;;;;;;3.35;2.92;;;1.20;99.90;;;;;;5031552;28;20269;-72
2022/12/10 02:10:29;;;;;;;8.23;3.72;;;1.40;99.90;;;;;;5047202;28;20200;-72
2022/12/10 02:13:05;;;;;;;5.00;2.20;;;1.40;99.90;;;;;;5047461;28;20239;-71
2022/12/10 02:15:39;;;;;;;4.13;2.05;;;1.40;99.90;;;;;;5046801;28;20200;-72
2022/12/10 02:18:10;;;;;;;6.75;4.15;;;1.30;99.90;;;;;;5046618;28;20242;-72
2022/12/10 02:20:44;;;;;;;3.80;2.38;;;1.40;99.90;;;;;;5046966;28;20200;-72
2022/12/10 02:23:15;;;;;;;3.38;3.08;;;1.40;99.90;;;;;;5047068;28;20196;-72
2022/12/10 02:25:47;;;;;;;6.05;5.45;;;1.50;99.90;;;;;;5049356;28;20395;-72
2022/12/10 02:28:20;;;;;;;3.13;2.92;;;1.20;99.90;;;;;;5050695;28;20233;-72
2022/12/10 02:30:51;;;;;;;3.22;2.90;;;1.40;99.90;;;;;;5050633;28;20299;-72
2022/12/10 02:33:20;;;;;;;6.28;5.47;;;1.50;99.90;;;;;;5051052;28;20220;-71
2022/12/10 02:35:51;;;;;;;2.00;1.90;;;1.50;99.90;;;;;;5050260;28;20220;-72
2022/12/10 02:38:25;;;;;;;6.10;4.15;;;1.40;99.90;;;;;;5050938;28;20235;-71
2022/12/10 02:40:58;;;;;;;3.90;2.10;;;1.40;99.90;;;;;;5049781;28;20279;-72
2022/12/10 02:43:30;;;;;;;5.45;5.00;;;1.40;99.90;;;;;;5050708;28;20231;-72
2022/12/10 02:46:03;;;;;;;3.25;3.05;;;1.50;99.90;;;;;;5050082;28;20232;-72
2022/12/10 02:48:32;;;;;;;2.47;2.25;;;1.50;99.90;;;;;;5050633;28;20604;-72
2022/12/10 02:51:00;;;;;;;2.60;2.15;;;1.50;99.90;;;;;;5050201;28;20227;-72
2022/12/10 02:53:29;;;;;;;4.00;2.85;;;1.50;99.90;;;;;;5050254;28;20666;-72
2022/12/10 02:56:14;;;;;;;5.00;3.70;;;1.50;99.90;;;;;;5049440;28;20207;-72
2022/12/10 02:58:57;;;;;;;3.00;2.08;;;1.50;99.90;;;;;;5050452;28;20661;-73
2022/12/10 03:01:35;;;;;;;7.78;4.50;;;1.50;99.90;;;;;;5049926;28;20578;-72
2022/12/10 03:04:07;;;;;;;3.80;3.53;;;1.30;99.90;;;;;;5049798;28;20559;-72
2022/12/10 03:06:42;;;;;;;11.93;6.25;;;1.50;99.90;;;;;;5049399;28;20625;-73
2022/12/10 03:09:13;;;;;;;3.95;3.58;;;1.50;99.90;;;;;;5050165;28;20195;-72
2022/12/10 03:11:44;;;;;;;3.65;3.00;;;1.40;99.90;;;;;;5033751;28;20199;-72
2022/12/10 03:14:16;;;;;;;4.50;3.53;;;1.40;99.90;;;;;;5049066;28;20303;-72
2022/12/10 03:16:49;;;;;;;5.28;2.70;;;1.50;99.90;;;;;;5049487;28;20290;-72
2022/12/10 03:19:20;;;;;;;7.35;5.38;;;1.50;99.90;;;;;;5042232;28;20199;-72
2022/12/10 03:21:49;;;;;;;6.43;3.30;;;1.50;99.90;;;;;;5050105;28;20204;-72
2022/12/10 03:24:17;;;;;;;4.38;3.90;;;1.50;99.90;;;;;;5049567;28;20208;-72
2022/12/10 03:26:48;;;;;;;2.45;2.25;;;1.50;99.90;;;;;;5048571;28;20246;-71
2022/12/10 03:29:22;;;;;;;8.65;4.05;;;1.40;99.90;;;;;;5049618;28;20196;-72
2022/12/10 03:31:53;;;;;;;5.32;2.88;;;1.40;99.90;;;;;;5041504;28;20203;-72
2022/12/10 03:34:23;;;;;;;1.80;1.60;;;1.50;99.90;;;;;;5049437;28;20596;-73
2022/12/10 03:36:52;;;;;;;7.78;4.10;;;1.50;99.90;;;;;;5048137;28;20216;-72
2022/12/10 03:39:20;;;;;;;3.58;3.25;;;1.50;99.90;;;;;;5048558;28;20232;-72
2022/12/10 03:41:47;;;;;;;3.90;3.53;;;1.30;99.90;;;;;;5049778;28;20207;-72
2022/12/10 03:44:14;;;;;;;3.38;3.17;;;1.40;99.90;;;;;;5048282;28;20688;-72
2022/12/10 03:46:42;;;;;;;3.95;3.08;;;1.40;99.90;;;;;;5048842;28;20238;-72
2022/12/10 03:49:12;;;;;;;3.83;3.35;;;1.30;99.90;;;;;;5049176;28;20837;-72
2022/12/10 03:51:39;;;;;;;7.68;3.08;;;1.10;99.90;;;;;;5048728;28;20569;-72
2022/12/10 03:54:07;;;;;;;9.43;4.70;;;1.10;99.90;;;;;;5049489;28;20200;-72
2022/12/10 03:56:35;;;;;;;3.60;2.65;;;1.10;99.90;;;;;;5048634;28;20196;-72
2022/12/10 03:59:03;;;;;;;3.13;2.92;;;1.20;99.90;;;;;;5049199;28;20196;-72
2022/12/10 04:01:30;;;;;;;7.38;5.97;;;1.30;99.90;;;;;;5048923;28;20222;-72
2022/12/10 04:03:57;;;;;;;3.55;3.25;;;1.30;99.90;;;;;;5048761;28;20722;-72
2022/12/10 04:06:25;;;;;;;2.13;1.58;;;1.40;99.90;;;;;;5047912;28;20224;-72
2022/12/10 04:08:53;;;;;;;3.88;2.80;;;1.40;99.90;;;;;;5048637;28;20682;-72
2022/12/10 04:11:20;;;;;;;4.82;4.30;;;1.40;99.90;;;;;;5048680;28;20677;-72
2022/12/10 04:16:33;;;;;;;7.15;6.13;;;1.20;99.90;;;;;;5048124;28;20192;-72
2022/12/10 04:19:02;;;;;;;1.95;1.85;;;1.30;99.90;;;;;;5048535;28;20296;-72
2022/12/10 04:27:05;;;;;;;9.20;3.65;;;1.30;99.90;;;;;;5047685;28;20248;-73
2022/12/10 04:29:32;;;;;;;2.78;2.60;;;1.10;99.90;;;;;;5048585;28;20199;-72
2022/12/10 04:31:59;;;;;;;3.80;3.60;;;1.00;99.90;;;;;;5048958;28;20196;-72
2022/12/10 04:34:26;;;;;;;3.35;2.55;;;1.10;99.90;;;;;;5048488;28;20566;-72
2022/12/10 04:36:55;;;;;;;3.92;3.55;;;1.10;99.90;;;;;;5047515;28;20204;-73
2022/12/10 04:39:22;;;;;;;3.58;2.42;;;1.20;99.90;;;;;;5048705;28;20622;-72
2022/12/10 04:41:50;;;;;;;4.20;2.85;;;1.00;99.90;;;;;;5047078;28;20284;-72
2022/12/10 04:44:17;;;;;;;3.47;3.25;;;1.00;99.90;;;;;;5048453;28;20196;-72
2022/12/10 04:46:44;;;;;;;4.43;3.13;;;1.10;99.90;;;;;;5046939;28;20234;-72
2022/12/10 04:49:12;;;;;;;5.50;3.28;;;1.00;99.90;;;;;;5048052;28;20275;-74
2022/12/10 04:51:38;;;;;;;5.38;3.20;;;1.00;99.90;;;;;;5047879;28;20196;-72
2022/12/10 04:54:07;;;;;;;9.63;3.30;;;1.10;99.90;;;;;;5048283;28;20732;-72
2022/12/10 04:56:35;;;;;;;2.40;2.28;;;1.00;99.90;;;;;;5046995;28;20826;-72
2022/12/10 04:59:02;;;;;;;3.60;3.35;;;1.00;99.90;;;;;;5048576;28;20196;-72
2022/12/10 05:01:29;;;;;;;5.95;3.55;;;1.10;99.90;;;;;;5047940;28;20621;-73
2022/12/10 05:03:59;;;;;;;2.92;2.00;;;1.10;99.90;;;;;;5047698;28;20732;-72
2022/12/10 05:06:27;;;;;;;3.78;3.30;;;1.10;99.90;;;;;;5047018;28;20230;-72
2022/12/10 05:08:53;;;;;;;2.67;2.47;;;1.00;99.90;;;;;;5047266;28;20290;-73
2022/12/10 05:11:24;;;;;;;5.28;3.03;;;1.10;99.90;;;;;;5047587;28;20212;-72
2022/12/10 05:13:51;;;;;;;4.03;2.00;;;1.10;99.90;;;;;;5031532;28;20595;-72
2022/12/10 05:16:19;;;;;;;5.43;3.58;;;1.30;99.90;;;;;;5047421;28;20200;-72
2022/12/10 05:18:46;;;;;;;5.95;5.38;;;1.10;99.90;;;;;;5047376;28;20203;-72
2022/12/10 05:21:15;;;;;;;3.35;3.10;;;1.10;99.90;;;;;;5047750;28;20191;-71
2022/12/10 05:23:43;;;;;;;2.75;2.50;;;1.10;99.90;;;;;;5048013;28;20192;-71
2022/12/10 05:26:12;;;;;;;5.68;2.95;;;1.10;99.90;;;;;;5047588;28;20629;-72
2022/12/10 05:28:43;;;;;;;5.13;3.80;;;1.10;99.90;;;;;;5047265;28;20215;-72
2022/12/10 05:31:13;;;;;;;5.70;3.67;;;1.10;99.90;;;;;;5047461;28;20198;-72
2022/12/10 05:33:39;;;;;;;2.40;1.40;;;1.10;99.90;;;;;;5047257;28;20204;-72
2022/12/10 05:36:07;;;;;;;3.50;2.80;;;1.10;99.90;;;;;;5046885;28;20220;-72
2022/12/10 05:38:34;;;;;;;3.67;3.47;;;1.10;99.90;;;;;;5047262;28;20218;-72
2022/12/10 05:41:03;;;;;;;5.32;3.25;;;1.10;99.90;;;;;;5047752;28;20188;-72
2022/12/10 05:43:29;;;;;;;4.28;2.78;;;1.10;99.90;;;;;;5047368;28;20199;-72
2022/12/10 05:46:01;;;;;;;3.70;3.45;;;1.10;99.90;;;;;;5046778;28;20230;-72
2022/12/10 05:48:28;;;;;;;3.83;3.50;;;1.00;99.90;;;;;;5047078;28;20639;-72
2022/12/10 05:50:55;;;;;;;4.38;4.07;;;1.00;99.90;;;;;;5046515;28;20542;-71
2022/12/10 05:53:22;;;;;;;7.47;5.93;;;1.00;99.90;;;;;;5047005;28;20562;-71
2022/12/10 05:55:49;;;;;;;2.15;2.05;;;0.90;99.90;;;;;;5046905;28;20196;-71
2022/12/10 05:58:16;;;;;;;10.13;2.97;;;0.90;99.90;;;;;;5048034;28;20242;-72
2022/12/10 06:00:43;;;;;;;8.38;3.88;;;0.90;99.90;;;;;;5050820;28;20693;-71
2022/12/10 06:03:11;;;;;;;5.25;3.65;;;0.90;99.90;;;;;;5051185;28;20568;-72
2022/12/10 06:05:38;;;;;;;2.75;1.70;;;0.80;99.90;;;;;;5050627;28;20287;-72
2022/12/10 06:08:05;;;;;;;5.25;3.20;;;0.70;99.90;;;;;;5051273;28;20940;-71
2022/12/10 06:10:34;;;;;;;3.15;1.70;;;0.70;99.90;;;;;;5050975;28;20204;-72
2022/12/10 06:13:01;;;;;;;2.58;2.47;;;0.70;99.90;;;;;;5051070;28;20659;-72
2022/12/10 06:15:28;;;;;;;4.40;4.00;;;0.80;99.90;;;;;;5050596;28;20210;-72
2022/12/10 06:17:55;;;;;;;7.28;4.40;;;0.80;99.90;;;;;;5051037;28;20188;-72
2022/12/10 06:20:24;;;;;;;4.00;3.70;;;0.60;99.90;;;;;;5050719;28;20196;-72
2022/12/10 06:22:51;;;;;;;4.32;3.88;;;0.70;99.90;;;;;;5050991;28;20202;-72
2022/12/10 06:25:18;;;;;;;2.38;2.00;;;0.70;99.90;;;;;;5051281;28;20629;-72
2022/12/10 06:27:44;;;;;;;3.40;2.75;;;0.70;99.90;;;;;;5050511;28;20231;-72
2022/12/10 06:30:12;;;;;;;3.78;3.38;;;0.70;99.90;;;;;;5050432;28;20200;-72
2022/12/10 06:32:39;;;;;;;3.05;2.90;;;0.80;99.90;;;;;;5050380;28;20721;-72
2022/12/10 06:35:06;;;;;;;3.50;2.20;;;0.90;99.90;;;;;;5050926;28;20196;-72
2022/12/10 06:37:34;;;;;;;2.90;2.70;;;0.90;99.90;;;;;;5050258;28;20279;-72
2022/12/10 06:40:01;;;;;;;4.70;4.22;;;0.80;99.90;;;;;;5050800;28;20202;-72
2022/12/10 06:42:28;;;;;;;5.55;4.00;;;0.80;99.90;;;;;;5050454;28;20208;-72
2022/12/10 06:44:55;;;;;;;4.32;4.03;;;0.70;99.90;;;;;;5050281;28;20194;-72
2022/12/10 06:47:22;;;;;;;4.22;3.08;;;0.80;99.90;;;;;;5050732;28;20227;-73
2022/12/10 06:49:49;;;;;;;3.33;3.13;;;0.80;99.90;;;;;;5050299;28;20214;-73
2022/12/10 06:52:16;;;;;;;3.17;2.95;;;0.80;99.90;;;;;;5050455;28;20204;-72
2022/12/10 06:54:44;;;;;;;2.80;2.03;;;0.80;99.90;;;;;;5050829;28;20208;-72
2022/12/10 06:57:11;;;;;;;3.90;1.60;;;0.70;99.90;;;;;;5049237;28;20203;-72
2022/12/10 06:59:37;;;;;;;4.53;2.55;;;0.70;99.90;;;;;;5049981;28;20685;-72
2022/12/10 07:02:04;;;;;;;7.03;4.72;;;0.70;99.90;;;;;;5050337;28;20194;-72
2022/12/10 07:04:31;;;;;;;4.72;4.18;;;0.30;99.90;;;;;;5050371;28;20199;-72
2022/12/10 07:06:58;;;;;;;2.97;1.58;;;0.60;99.90;;;;;;5049389;28;20228;-72
2022/12/10 07:09:25;;;;;;;5.07;2.53;;;0.50;99.90;;;;;;5050024;28;20200;-72
2022/12/10 07:11:53;;;;;;;2.92;1.77;;;0.60;99.90;;;;;;5048582;28;20682;-72
2022/12/10 07:14:20;;;;;;;3.53;3.35;;;0.60;99.90;;;;;;5050130;28;20206;-72
2022/12/10 07:16:47;;;;;;;3.33;3.05;;;0.50;99.90;;;;;;5049312;28;20565;-72
2022/12/10 07:19:14;;;;;;;8.07;5.72;;;0.60;99.90;;;;;;5049877;28;20204;-72
2022/12/10 07:21:42;;;;;;;3.90;3.30;;;-0.10;99.90;;;;;;5050311;28;20218;-72
2022/12/10 07:24:13;;;;;;;9.77;4.07;;;0.60;99.90;;;;;;5049186;28;20193;-72
2022/12/10 07:26:42;;;;;;;2.90;2.78;;;0.50;99.90;;;;;;5049096;28;20234;-72
2022/12/10 07:29:14;;;;;;;5.03;2.15;;;0.50;99.90;;;;;;5049927;28;20599;-72
2022/12/10 07:31:41;;;;;;;9.68;3.50;;;0.50;99.90;;;;;;5049106;28;20215;-72
2022/12/10 07:34:08;;;;;;;2.53;1.90;;;0.50;99.90;;;;;;5049935;28;20200;-72
2022/12/10 07:36:35;;;;;;;2.97;2.80;;;0.50;99.90;;;;;;5048943;28;20663;-72
2022/12/10 07:39:02;;;;;;;4.15;3.63;;;0.70;99.90;;;;;;5049020;28;20287;-72
2022/12/10 07:41:29;;;;;;;3.47;2.47;;;0.60;99.90;;;;;;5049285;28;20200;-72
2022/12/10 07:43:56;;;;;;;9.63;5.60;;;0.60;99.90;;;;;;5048643;28;20740;-71
2022/12/10 07:46:27;;;;;;;5.47;3.20;;;0.60;99.90;;;;;;5048831;28;20660;-71
2022/12/10 07:48:54;;;;;;;2.60;2.40;;;0.50;99.90;;;;;;5049575;28;20200;-72
2022/12/10 07:51:22;;;;;;;4.88;4.53;;;0.50;99.90;;;;;;5048428;28;20273;-72
2022/12/10 07:53:51;;;;;;;3.83;3.15;;;0.40;99.90;;;;;;5049392;28;20204;-71
2022/12/10 07:56:18;;;;;;;3.53;3.10;;;0.50;99.90;;;;;;5048955;28;20283;-72
2022/12/10 07:58:46;;;;;;;11.15;7.90;;;0.50;99.90;;;;;;5047850;28;20745;-72
2022/12/10 08:01:14;;;;;;;6.88;3.28;;;0.50;99.90;;;;;;5048994;28;20204;-72
2022/12/10 08:03:43;;;;;;;7.15;5.55;;;0.50;99.90;;;;;;5048925;28;20207;-72
2022/12/10 08:06:13;;;;;;;4.10;3.72;;;0.60;99.90;;;;;;5048310;28;20659;-72
2022/12/10 08:08:40;;;;;;;5.43;4.30;;;0.50;99.90;;;;;;5048959;28;20203;-72
2022/12/10 08:11:07;;;;;;;6.88;2.78;;;0.70;99.90;;;;;;5048931;28;20307;-72
2022/12/10 08:13:36;;;;;;;1.88;1.77;;;0.60;99.90;;;;;;5049100;28;20203;-72
2022/12/10 08:16:03;;;;;;;2.08;1.98;;;0.60;99.90;;;;;;5047775;28;20202;-72
2022/12/10 08:18:31;;;;;;;3.15;2.95;;;0.60;99.90;;;;;;5047014;28;20195;-72
2022/12/10 08:20:59;;;;;;;6.32;2.72;;;0.70;99.90;;;;;;5046914;28;20200;-72
2022/12/10 08:23:26;;;;;;;7.93;5.82;;;0.70;99.90;;;;;;5047620;28;20222;-72
2022/12/10 08:25:53;;;;;;;1.63;1.52;;;0.70;99.90;;;;;;5046682;28;20194;-72
2022/12/10 08:28:19;;;;;;;13.40;9.27;;;0.80;99.90;;;;;;5046033;28;20220;-71
2022/12/10 08:30:47;;;;;;;5.05;4.68;;;0.80;99.90;;;;;;5046779;28;20199;-72
2022/12/10 08:33:14;;;;;;;6.85;5.63;;;1.20;99.90;;;;;;5047009;28;20287;-72
2022/12/10 08:35:41;;;;;;;5.32;4.90;;;0.80;99.90;;;;;;5046570;28;20315;-72
2022/12/10 08:38:09;;;;;;;8.75;4.15;;;0.80;99.90;;;;;;5048372;28;20208;-72
2022/12/10 08:40:39;;;;;;;7.45;4.68;;;0.80;99.90;;;;;;5048733;28;20214;-71
2022/12/10 08:43:06;;;;;;;5.72;3.47;;;0.80;99.90;;;;;;5048160;28;20196;-72
2022/12/10 08:45:33;;;;;;;7.43;4.75;;;0.80;99.90;;;;;;5047652;28;20198;-72
2022/12/10 08:48:01;;;;;;;2.17;1.65;;;0.90;99.90;;;;;;5047830;28;20215;-72
2022/12/10 08:50:28;;;;;;;5.25;4.85;;;0.90;99.90;;;;;;5048480;28;20274;-72
2022/12/10 08:52:55;;;;;;;2.80;1.95;;;0.90;99.90;;;;;;5048074;28;20451;-72
2022/12/10 08:55:23;;;;;;;4.43;4.05;;;0.60;99.90;;;;;;5048226;28;20198;-72
2022/12/10 08:57:50;;;;;;;3.53;3.22;;;0.90;99.90;;;;;;5046944;28;20633;-71
2022/12/10 09:00:18;;;;;;;4.70;3.58;;;1.00;99.90;;;;;;5048263;28;20283;-72
2022/12/10 09:02:45;;;;;;;2.95;2.75;;;1.10;99.90;;;;;;5048081;28;20682;-72
2022/12/10 09:05:12;;;;;;;5.43;4.03;;;1.10;99.90;;;;;;5047390;28;20274;-72
2022/12/10 09:07:39;;;;;;;8.45;5.07;;;1.00;99.90;;;;;;5047181;28;20207;-72
2022/12/10 09:10:06;;;;;;;2.80;2.50;;;1.00;99.90;;;;;;5048192;28;20631;-72
2022/12/10 09:12:35;;;;;;;4.60;2.00;;;1.00;99.90;;;;;;5047205;28;20595;-72
2022/12/10 09:15:02;;;;;;;3.63;1.90;;;1.00;99.90;;;;;;5047663;28;20556;-72
2022/12/10 09:17:29;;;;;;;2.15;1.80;;;0.90;99.90;;;;;;5046773;28;20223;-72
2022/12/10 09:19:55;;;;;;;3.33;3.03;;;0.90;99.90;;;;;;5047947;28;20199;-72
2022/12/10 09:22:22;;;;;;;5.43;3.15;;;0.90;99.90;;;;;;5047847;28;20210;-72
2022/12/10 09:24:49;;;;;;;2.90;2.70;;;0.90;99.90;;;;;;5047557;28;20219;-72
2022/12/10 09:27:16;;;;;;;3.85;3.33;;;1.00;99.90;;;;;;5046457;28;20502;-72
2022/12/10 09:29:44;;;;;;;1.92;1.83;;;1.00;99.90;;;;;;5047755;28;20196;-72
2022/12/10 09:32:11;;;;;;;5.50;5.10;;;1.10;99.90;;;;;;5047989;28;20522;-72
2022/12/10 09:34:38;;;;;;;6.80;3.50;;;1.20;99.90;;;;;;5047350;28;20206;-72
2022/12/10 09:37:04;;;;;;;5.80;3.45;;;1.20;99.90;;;;;;5046493;28;20208;-72
2022/12/10 09:39:31;;;;;;;2.38;2.15;;;1.20;99.90;;;;;;5048217;28;20540;-72
2022/12/10 09:42:14;;;;;;;1.42;1.42;;;0.70;99.90;;;;;;5046866;28;20198;-72
2022/12/10 09:44:54;;;;;;;10.68;4.13;;;1.00;99.90;;;;;;5043972;28;20245;-72
2022/12/10 09:47:25;;;;;;;4.28;2.30;;;0.90;99.90;;;;;;5047127;28;20721;-72
2022/12/10 09:50:03;;;;;;;4.03;3.22;;;1.10;99.90;;;;;;5047076;28;20669;-71
2022/12/10 09:52:37;;;;;;;2.55;2.35;;;1.00;99.90;;;;;;5047465;28;20338;-72
2022/12/10 09:55:12;;;;;;;5.40;3.00;;;1.00;99.90;;;;;;5047553;28;20662;-72
2022/12/10 09:57:43;;;;;;;5.20;2.25;;;1.00;99.90;;;;;;5046520;28;20303;-72
2022/12/10 10:00:21;;;;;;;4.70;2.90;;;1.00;99.90;;;;;;5047391;28;20204;-72
2022/12/10 10:02:49;;;;;;;5.75;5.22;;;0.90;99.90;;;;;;5046507;28;20737;-72
2022/12/10 10:05:22;;;;;;;4.32;2.95;;;0.90;99.90;;;;;;5047246;28;20196;-72
2022/12/10 10:07:53;;;;;;;2.03;1.33;;;1.00;99.90;;;;;;5046300;28;20215;-72
2022/12/10 10:10:27;;;;;;;2.15;1.48;;;0.90;99.90;;;;;;5047297;28;20192;-73
2022/12/10 10:12:57;;;;;;;2.33;1.65;;;0.90;99.90;;;;;;5046828;28;20207;-72
2022/12/10 10:15:31;;;;;;;4.53;2.70;;;0.90;99.90;;;;;;5047459;28;20254;-72
2022/12/10 10:18:03;;;;;;;2.30;2.15;;;1.70;99.90;;;;;;5047311;28;20198;-72
2022/12/10 10:20:30;;;;;;;5.65;2.45;;;1.10;99.90;;;;;;5047560;28;20196;-72
2022/12/10 10:22:59;;;;;;;2.38;2.28;;;0.90;99.90;;;;;;5046967;28;20204;-72
2022/12/10 10:25:27;;;;;;;2.88;2.67;;;0.90;99.90;;;;;;5046433;28;20196;-72
2022/12/10 10:27:54;;;;;;;3.65;3.40;;;1.00;99.90;;;;;;5046403;28;20350;-72
2022/12/10 10:30:23;;;;;;;2.38;1.80;;;0.80;99.90;;;;;;5047401;28;20203;-72
2022/12/10 10:32:52;;;;;;;2.42;2.33;;;0.80;99.90;;;;;;5047266;28;20613;-72
2022/12/10 10:35:26;;;;;;;4.85;3.03;;;0.90;99.90;;;;;;5046662;28;20206;-72
2022/12/10 10:37:58;;;;;;;1.80;1.70;;;1.10;99.90;;;;;;5046071;28;20759;-72
2022/12/10 10:40:27;;;;;;;4.70;4.40;;;1.00;99.90;;;;;;5047457;28;20192;-72
2022/12/10 10:42:57;;;;;;;1.10;1.05;;;1.10;99.90;;;;;;5046804;28;20279;-72
2022/12/10 10:45:37;;;;;;;4.00;2.08;;;1.00;99.90;;;;;;5047760;28;20476;-72
2022/12/10 10:48:10;;;;;;;3.35;2.85;;;1.10;99.90;;;;;;5050734;28;20226;-72
2022/12/10 10:50:40;;;;;;;10.35;2.97;;;1.00;99.90;;;;;;5050018;28;20231;-72
2022/12/10 10:53:29;;;;;;;5.55;3.97;;;1.00;99.90;;;;;;5048861;28;20291;-72
2022/12/10 10:55:58;;;;;;;2.28;2.00;;;1.00;99.90;;;;;;5049450;28;20192;-73
2022/12/10 10:58:26;;;;;;;3.80;2.67;;;1.20;99.90;;;;;;5050431;28;20200;-72
2022/12/10 11:00:59;;;;;;;2.33;2.17;;;1.40;99.90;;;;;;5049174;28;20765;-72
2022/12/10 11:03:29;;;;;;;2.83;2.67;;;1.40;99.90;;;;;;5050559;28;20689;-72
2022/12/10 11:05:58;;;;;;;8.13;3.50;;;1.40;99.90;;;;;;5049375;28;20206;-72
2022/12/10 11:08:28;;;;;;;3.20;2.88;;;1.30;99.90;;;;;;5050172;28;20230;-72
2022/12/10 11:11:01;;;;;;;8.02;4.35;;;1.10;99.90;;;;;;5049823;28;20516;-72
2022/12/10 11:13:29;;;;;;;2.05;1.70;;;1.20;99.90;;;;;;5050058;28;20200;-72
2022/12/10 11:15:59;;;;;;;5.75;5.28;;;1.10;99.90;;;;;;5048723;28;20659;-72
2022/12/10 11:18:32;;;;;;;4.22;3.25;;;1.30;99.90;;;;;;5050183;28;20206;-72
2022/12/10 11:21:06;;;;;;;5.97;3.45;;;1.40;99.90;;;;;;5048921;28;20192;-72
2022/12/10 11:23:38;;;;;;;3.97;2.53;;;1.40;99.90;;;;;;5049940;28;20749;-72
2022/12/10 11:26:22;;;;;;;5.40;3.75;;;1.30;99.90;;;;;;5048858;28;20206;-73
2022/12/10 11:29:01;;;;;;;7.30;4.18;;;1.20;99.90;;;;;;5049880;28;20224;-72
2022/12/10 11:31:48;;;;;;;1.80;1.48;;;1.30;99.90;;;;;;5049124;28;20200;-72
2022/12/10 11:34:20;;;;;;;2.55;2.08;;;1.40;99.90;;;;;;5049314;28;20836;-72
2022/12/10 11:36:56;;;;;;;2.63;2.05;;;1.40;99.90;;;;;;5048209;28;20214;-72
2022/12/10 11:39:45;;;;;;;1.70;1.45;;;1.40;99.90;;;;;;5049277;28;20282;-72
2022/12/10 11:42:21;;;;;;;2.17;2.08;;;1.60;99.90;;;;;;5049017;28;20192;-72
2022/12/10 11:44:55;;;;;;;4.15;3.83;;;1.70;99.90;;;;;;5045309;28;20208;-72
2022/12/10 11:47:39;;;;;;;2.92;1.70;;;1.70;99.90;;;;;;5048642;28;20191;-72
2022/12/10 11:50:19;;;;;;;3.05;2.80;;;1.50;99.90;;;;;;5048853;28;20211;-73
2022/12/10 11:53:02;;;;;;;6.47;3.38;;;1.40;99.90;;;;;;5048722;28;20539;-72
2022/12/10 11:55:36;;;;;;;5.22;3.22;;;1.30;99.90;;;;;;5047971;28;20207;-73
2022/12/10 11:58:18;;;;;;;3.70;3.05;;;1.50;99.90;;;;;;5047189;28;20712;-72
2022/12/10 12:00:53;;;;;;;3.13;2.50;;;1.70;99.90;;;;;;5048928;28;20747;-72
2022/12/10 12:03:52;;;;;;;2.90;2.28;;;1.40;99.90;;;;;;5048682;28;20206;-72
2022/12/10 12:06:41;;;;;;;3.72;2.38;;;1.50;99.90;;;;;;5035486;28;20684;-72
2022/12/10 12:09:16;;;;;;;3.80;2.67;;;1.60;99.90;;;;;;5049019;28;20238;-72
2022/12/10 12:11:59;;;;;;;4.50;3.10;;;1.70;99.90;;;;;;5048459;28;20310;-72
2022/12/10 12:14:33;;;;;;;6.85;3.65;;;1.60;99.90;;;;;;5048298;28;20371;-72
2022/12/10 12:17:05;;;;;;;0.80;0.68;;;1.70;99.90;;;;;;5048238;28;20287;-72
2022/12/10 12:19:37;;;;;;;5.72;4.18;;;1.60;99.90;;;;;;5048660;28;20578;-72
2022/12/10 12:22:13;;;;;;;6.38;2.33;;;1.50;99.90;;;;;;5048247;28;20201;-72
2022/12/10 12:24:44;;;;;;;3.78;3.42;;;1.40;99.90;;;;;;5048795;28;20203;-73
2022/12/10 12:27:15;;;;;;;7.15;3.15;;;1.40;99.90;;;;;;5048162;28;20293;-72
2022/12/10 12:29:51;;;;;;;4.30;3.20;;;1.50;99.90;;;;;;5048653;28;20228;-72
2022/12/10 12:32:25;;;;;;;2.00;1.80;;;1.50;99.90;;;;;;5028722;28;20683;-72
2022/12/10 12:34:56;;;;;;;9.05;5.03;;;1.30;99.90;;;;;;5044097;28;20819;-72
2022/12/10 12:37:31;;;;;;;10.20;3.95;;;1.40;99.90;;;;;;5047344;28;20298;-71
2022/12/10 12:40:04;;;;;;;2.58;2.38;;;1.40;99.90;;;;;;5048270;28;20207;-72
2022/12/10 12:42:39;;;;;;;5.32;3.22;;;1.50;99.90;;;;;;5048149;28;20192;-72
2022/12/10 12:45:15;;;;;;;5.78;1.83;;;1.30;99.90;;;;;;5047738;28;20287;-72
2022/12/10 12:47:52;;;;;;;5.45;2.65;;;1.50;99.90;;;;;;5046853;28;20195;-73
2022/12/10 12:50:26;;;;;;;1.50;1.40;;;1.60;99.90;;;;;;5047889;28;20195;-72
2022/12/10 12:52:57;;;;;;;3.50;3.20;;;1.50;99.90;;;;;;5045649;28;20196;-72
2022/12/10 12:55:30;;;;;;;2.63;2.42;;;1.60;99.90;;;;;;5047211;28;20204;-72
2022/12/10 12:58:16;;;;;;;2.00;1.90;;;1.60;99.90;;;;;;5048089;28;20283;-71
2022/12/10 13:00:46;;;;;;;8.25;2.35;;;1.60;99.90;;;;;;5044894;28;20601;-72
2022/12/10 13:03:28;;;;;;;3.70;2.63;;;1.60;99.90;;;;;;5047542;28;20271;-72
2022/12/10 13:05:55;;;;;;;3.03;1.42;;;1.60;99.90;;;;;;5046754;28;20718;-72
2022/12/10 13:08:29;;;;;;;1.42;1.33;;;1.60;99.90;;;;;;5046776;28;20227;-73
2022/12/10 13:11:00;;;;;;;2.28;2.08;;;1.50;99.90;;;;;;5047735;28;20282;-72
2022/12/10 13:13:31;;;;;;;11.75;6.90;;;1.50;99.90;;;;;;5046135;28;21340;-72
2022/12/10 13:16:45;;;;;;;4.32;3.85;;;1.30;99.90;;;;;;5046894;28;20618;-71
2022/12/10 13:19:30;;;;;;;4.70;4.32;;;1.40;99.90;;;;;;5047196;28;20270;-71
2022/12/10 13:22:00;;;;;;;2.55;1.60;;;1.40;99.90;;;;;;5047199;28;20196;-72